Time;durP1;ratioP1;P1;durP2;ratioP2;P2;SDS_P1;SDS_P2;PMS_P1;PMS_P2;Temp;Humidity;BMP_temperature;BMP_pressure;BME280_temperature;BME280_humidity;BME280_pressure;Samples;Min_cycle;Max_cycle;Signal;HPM_P1;HPM_P2
2023/12/07 00:03:35;;;;;;;7.75;3.65;;;;;;;1.84;66.84;100272.69;10518670;28;20071;-68
2023/12/07 00:08:37;;;;;;;8.82;3.70;;;;;;;1.80;66.94;100276.19;10518442;28;20405;-68
2023/12/07 00:13:39;;;;;;;7.03;3.10;;;;;;;1.84;67.02;100286.44;10519710;28;20051;-68
2023/12/07 00:18:41;;;;;;;7.22;3.55;;;;;;;1.94;66.70;100287.97;10500936;28;20067;-67
2023/12/07 00:23:43;;;;;;;7.97;3.20;;;;;;;2.02;66.64;100298.97;10500529;28;20620;-69
2023/12/07 00:28:45;;;;;;;6.55;3.88;;;;;;;2.04;66.59;100304.09;10518947;28;20044;-67
2023/12/07 00:33:47;;;;;;;10.55;3.83;;;;;;;1.91;66.41;100302.66;10500349;28;20059;-68
2023/12/07 00:38:49;;;;;;;7.97;3.50;;;;;;;1.72;66.40;100296.13;10517815;28;20135;-69
2023/12/07 00:43:51;;;;;;;6.75;3.83;;;;;;;1.48;66.57;100301.69;10517763;28;20084;-67
2023/12/07 00:48:53;;;;;;;6.35;3.42;;;;;;;1.28;67.05;100299.44;10517012;28;20070;-70
2023/12/07 00:53:55;;;;;;;5.40;3.28;;;;;;;1.13;67.01;100295.41;10499246;28;20040;-66
2023/12/07 00:58:57;;;;;;;7.88;3.25;;;;;;;1.02;67.34;100312.75;10491966;28;20056;-67
2023/12/07 01:03:59;;;;;;;5.47;2.88;;;;;;;0.93;67.42;100312.88;10516765;28;20050;-69
2023/12/07 01:09:03;;;;;;;4.53;2.63;;;;;;;0.95;67.64;100320.59;10516306;28;20048;-69
2023/12/07 01:14:05;;;;;;;4.25;2.72;;;;;;;1.08;67.52;100316.94;10517049;28;20036;-69
2023/12/07 01:19:07;;;;;;;6.07;3.10;;;;;;;1.25;67.57;100323.56;10516814;28;20492;-69
2023/12/07 01:24:09;;;;;;;6.65;3.03;;;;;;;1.35;67.28;100319.94;10517305;28;20044;-69
2023/12/07 01:29:17;;;;;;;10.05;3.20;;;;;;;1.33;67.13;100321.69;10515837;28;20435;-69
2023/12/07 01:34:19;;;;;;;6.22;2.92;;;;;;;1.19;67.39;100331.38;10516909;28;20411;-70
2023/12/07 01:39:21;;;;;;;6.78;3.38;;;;;;;1.11;67.41;100338.38;10498564;28;20036;-69
2023/12/07 01:44:24;;;;;;;10.18;3.28;;;;;;;1.19;67.43;100341.69;10516191;28;20036;-69
2023/12/07 01:49:26;;;;;;;7.40;2.13;;;;;;;1.16;67.33;100336.56;10516314;28;20415;-69
2023/12/07 01:54:29;;;;;;;8.88;2.75;;;;;;;1.15;67.13;100334.00;10493473;28;20085;-70
2023/12/07 01:59:31;;;;;;;7.25;3.13;;;;;;;1.06;67.18;100341.88;10507280;28;20201;-69
2023/12/07 02:04:34;;;;;;;4.95;2.55;;;;;;;1.04;67.23;100347.03;10481540;28;20044;-69
2023/12/07 02:09:37;;;;;;;4.57;2.75;;;;;;;1.17;67.41;100343.44;10522508;28;20051;-69
2023/12/07 02:14:39;;;;;;;5.55;3.17;;;;;;;1.43;67.43;100332.69;10523492;28;20067;-69
2023/12/07 02:20:06;;;;;;;5.50;2.83;;;;;;;1.62;67.47;100334.09;10524706;28;20633;-69
2023/12/07 02:25:10;;;;;;;6.22;2.72;;;;;;;1.69;67.04;100338.25;10524777;28;20054;-70
2023/12/07 02:30:13;;;;;;;4.13;2.45;;;;;;;1.71;67.08;100344.25;10523609;28;20052;-70
2023/12/07 02:35:15;;;;;;;5.95;3.30;;;;;;;1.93;67.10;100342.16;10522694;28;20075;-70
2023/12/07 02:40:20;;;;;;;5.88;2.70;;;;;;;2.02;66.68;100347.13;10522438;28;20163;-70
2023/12/07 02:45:23;;;;;;;4.50;2.28;;;;;;;2.11;66.44;100352.94;10501294;28;20047;-68
2023/12/07 02:50:25;;;;;;;5.22;2.50;;;;;;;2.16;66.32;100345.13;10522764;28;20592;-69
2023/12/07 02:55:27;;;;;;;7.00;2.53;;;;;;;2.08;66.30;100336.69;10521885;28;20135;-69
2023/12/07 03:00:29;;;;;;;4.80;2.72;;;;;;;1.92;66.42;100346.44;10521799;28;20059;-70
2023/12/07 03:05:31;;;;;;;5.30;2.50;;;;;;;1.73;66.43;100351.94;10521678;28;20527;-70
2023/12/07 03:10:33;;;;;;;4.57;2.35;;;;;;;1.62;66.71;100362.47;10503426;28;20119;-68
2023/12/07 03:15:35;;;;;;;10.23;3.00;;;;;;;1.48;66.59;100363.56;10521754;28;20388;-69
2023/12/07 03:20:37;;;;;;;5.60;2.50;;;;;;;1.33;67.00;100362.06;10519854;28;20123;-67
2023/12/07 03:25:39;;;;;;;14.63;3.25;;;;;;;1.38;67.05;100361.13;10520884;28;20066;-67
2023/12/07 03:30:41;;;;;;;10.13;3.05;;;;;;;1.55;67.06;100357.41;10520924;28;20059;-67
2023/12/07 03:35:43;;;;;;;5.78;2.70;;;;;;;1.73;66.77;100359.69;10520634;28;20044;-67
2023/12/07 03:40:47;;;;;;;6.10;3.00;;;;;;;1.77;66.67;100358.75;10521310;28;20552;-68
2023/12/07 03:45:51;;;;;;;5.45;2.40;;;;;;;1.78;66.69;100352.72;10519870;28;20044;-67
2023/12/07 03:50:54;;;;;;;5.65;2.60;;;;;;;1.74;66.68;100354.53;10519221;28;20048;-67
2023/12/07 03:55:55;;;;;;;5.78;2.97;;;;;;;1.64;66.53;100359.84;10519853;28;20397;-67
2023/12/07 04:00:57;;;;;;;10.55;2.90;;;;;;;1.50;66.56;100362.66;10518770;28;20048;-67
2023/12/07 04:06:00;;;;;;;3.97;2.33;;;;;;;1.26;66.92;100371.63;10500400;28;20555;-67
2023/12/07 04:11:02;;;;;;;4.93;2.70;;;;;;;1.10;67.32;100372.72;10519484;28;20126;-67
2023/12/07 04:16:05;;;;;;;3.88;2.42;;;;;;;1.23;67.82;100363.94;10518302;28;20051;-67
2023/12/07 04:21:07;;;;;;;6.57;2.40;;;;;;;1.39;67.36;100369.69;10518809;28;20040;-67
2023/12/07 04:26:09;;;;;;;3.78;2.30;;;;;;;1.48;67.25;100374.72;10518509;28;20044;-67
2023/12/07 04:31:11;;;;;;;12.95;2.90;;;;;;;1.61;66.94;100376.22;10517911;28;20213;-67
2023/12/07 04:36:13;;;;;;;4.72;2.75;;;;;;;1.68;66.95;100387.28;10517612;28;20040;-68
2023/12/07 04:41:15;;;;;;;6.05;2.60;;;;;;;1.62;66.68;100383.09;10516274;28;20047;-67
2023/12/07 04:46:17;;;;;;;6.90;3.30;;;;;;;1.64;66.90;100377.91;10518158;28;20036;-67
2023/12/07 04:51:19;;;;;;;5.07;2.50;;;;;;;1.50;66.49;100382.44;10517129;28;20052;-68
2023/12/07 04:56:21;;;;;;;6.10;2.50;;;;;;;1.29;66.72;100387.03;10518394;28;20048;-67
2023/12/07 05:01:24;;;;;;;5.85;2.58;;;;;;;1.18;67.04;100394.06;10517745;28;20384;-67
2023/12/07 05:06:26;;;;;;;4.43;2.08;;;;;;;1.10;66.97;100395.91;10498960;28;20409;-67
2023/12/07 05:11:28;;;;;;;4.95;2.55;;;;;;;0.97;67.17;100396.94;10514741;28;20040;-67
2023/12/07 05:16:30;;;;;;;13.00;3.53;;;;;;;0.94;67.45;100396.13;10517051;28;20585;-67
2023/12/07 05:21:32;;;;;;;12.73;2.90;;;;;;;0.86;67.40;100392.78;10517251;28;20040;-66
2023/12/07 05:26:34;;;;;;;4.13;2.30;;;;;;;0.72;67.37;100395.56;10515734;28;20089;-69
2023/12/07 05:31:36;;;;;;;6.57;2.75;;;;;;;0.70;67.48;100397.31;10515644;28;20052;-67
2023/12/07 05:36:38;;;;;;;4.60;2.42;;;;;;;0.70;67.57;100401.59;10516347;28;20043;-68
2023/12/07 05:41:40;;;;;;;40.95;4.32;;;;;;;0.69;67.60;100400.72;10517786;28;20042;-68
2023/12/07 05:46:44;;;;;;;13.40;2.67;;;;;;;0.65;67.70;100404.22;10524862;28;20488;-68
2023/12/07 05:51:46;;;;;;;7.35;2.08;;;;;;;0.72;67.65;100413.56;10525145;28;20051;-68
2023/12/07 05:56:48;;;;;;;6.15;2.05;;;;;;;0.75;67.50;100423.00;10524971;28;20512;-68
2023/12/07 06:01:53;;;;;;;7.93;1.88;;;;;;;0.62;67.64;100422.28;10505660;28;20070;-68
2023/12/07 06:06:55;;;;;;;3.13;2.05;;;;;;;0.64;67.67;100425.69;10524080;28;20046;-68
2023/12/07 06:11:57;;;;;;;3.35;2.38;;;;;;;0.64;67.72;100407.69;10538928;28;20075;-68
2023/12/07 06:16:59;;;;;;;5.07;1.90;;;;;;;0.66;67.46;100410.22;10523492;28;20079;-68
2023/12/07 06:22:01;;;;;;;3.53;2.08;;;;;;;0.62;67.30;100424.84;10523939;28;20563;-68
2023/12/07 06:27:04;;;;;;;9.73;2.78;;;;;;;0.50;67.44;100430.16;10523533;28;20537;-67
2023/12/07 06:32:06;;;;;;;4.10;1.90;;;;;;;0.38;67.45;100438.00;10521461;28;20043;-68
2023/12/07 06:37:10;;;;;;;4.18;2.20;;;;;;;0.41;67.51;100445.66;10504751;28;20127;-67
2023/12/07 06:42:12;;;;;;;2.90;1.50;;;;;;;0.40;67.30;100442.22;10523405;28;20040;-67
2023/12/07 06:47:15;;;;;;;4.88;2.20;;;;;;;0.32;67.44;100453.50;10521823;28;20143;-67
2023/12/07 06:52:17;;;;;;;4.55;2.00;;;;;;;0.33;67.58;100455.19;10520735;28;20097;-67
2023/12/07 06:57:19;;;;;;;3.22;1.95;;;;;;;0.36;67.62;100462.91;10521961;28;20067;-67
2023/12/07 07:02:21;;;;;;;6.35;2.20;;;;;;;0.44;67.45;100463.66;10520940;28;20052;-67
2023/12/07 07:07:23;;;;;;;5.28;2.42;;;;;;;0.53;67.42;100456.69;10521282;28;20401;-69
2023/12/07 07:12:25;;;;;;;5.28;2.17;;;;;;;0.54;67.28;100460.13;10517004;28;20052;-69
2023/12/07 07:17:29;;;;;;;4.63;2.20;;;;;;;0.69;67.46;100457.34;10516455;28;20044;-70
2023/12/07 07:22:31;;;;;;;6.60;3.28;;;;;;;0.83;67.07;100454.66;10519386;28;20130;-68
2023/12/07 07:27:33;;;;;;;3.83;2.25;;;;;;;0.74;66.64;100444.44;10519601;28;20066;-68
2023/12/07 07:32:36;;;;;;;6.25;2.20;;;;;;;0.73;66.89;100433.28;10499869;28;20276;-69
2023/12/07 07:37:39;;;;;;;4.82;2.78;;;;;;;0.88;66.85;100427.09;10520808;28;20044;-69
2023/12/07 07:42:41;;;;;;;6.43;2.85;;;;;;;0.79;66.89;100430.63;10519917;28;20826;-68
2023/12/07 07:47:43;;;;;;;4.35;2.25;;;;;;;0.93;67.10;100433.06;10501841;28;20055;-68
2023/12/07 07:52:45;;;;;;;6.75;2.67;;;;;;;1.16;66.67;100419.00;10519635;28;20138;-68
2023/12/07 07:57:47;;;;;;;5.38;2.80;;;;;;;1.13;66.46;100419.06;10520069;28;20061;-68
2023/12/07 08:02:50;;;;;;;3.80;2.35;;;;;;;1.19;66.80;100415.53;10516990;28;20127;-68
2023/12/07 08:07:52;;;;;;;5.63;2.42;;;;;;;1.30;66.26;100419.66;10519811;28;20557;-67
2023/12/07 08:12:54;;;;;;;5.20;2.55;;;;;;;1.43;66.20;100417.75;10517557;28;20050;-68
2023/12/07 08:17:56;;;;;;;4.47;2.22;;;;;;;1.50;66.18;100411.63;10516819;28;20040;-68
2023/12/07 08:22:59;;;;;;;4.78;2.97;;;;;;;1.40;66.08;100415.19;10519396;28;20066;-68
2023/12/07 08:28:01;;;;;;;6.20;3.40;;;;;;;1.52;66.53;100403.88;10518287;28;20330;-66
2023/12/07 08:33:03;;;;;;;6.40;3.45;;;;;;;1.80;66.14;100407.69;10518247;28;20055;-68
2023/12/07 08:38:05;;;;;;;5.10;3.10;;;;;;;1.74;65.74;100407.81;10500820;28;20039;-68
2023/12/07 08:43:08;;;;;;;6.97;3.05;;;;;;;1.94;65.91;100403.16;10495262;28;20093;-67
2023/12/07 08:48:10;;;;;;;8.50;5.07;;;;;;;1.96;65.79;100403.97;10517994;28;20125;-68
2023/12/07 08:53:12;;;;;;;8.70;4.20;;;;;;;1.93;65.66;100396.31;10518085;28;20048;-68
2023/12/07 08:58:14;;;;;;;6.60;3.40;;;;;;;1.95;65.62;100404.88;10517811;28;20631;-68
2023/12/07 09:03:16;;;;;;;8.25;4.03;;;;;;;1.99;65.50;100404.78;10500508;28;20043;-68
2023/12/07 09:08:18;;;;;;;7.20;3.30;;;;;;;2.21;65.61;100413.81;10517885;28;20183;-68
2023/12/07 09:13:20;;;;;;;5.90;3.08;;;;;;;2.50;65.02;100417.63;10517894;28;20075;-68
2023/12/07 09:18:24;;;;;;;7.22;3.53;;;;;;;2.47;64.93;100423.69;10515879;28;20102;-68
2023/12/07 09:23:26;;;;;;;6.60;3.58;;;;;;;2.62;64.89;100423.38;10499559;28;20044;-68
2023/12/07 09:28:28;;;;;;;9.82;4.57;;;;;;;2.81;64.78;100424.72;10517113;28;20050;-68
2023/12/07 09:33:30;;;;;;;8.27;4.32;;;;;;;2.92;64.57;100422.78;10482658;28;20128;-68
2023/12/07 09:38:32;;;;;;;6.38;3.53;;;;;;;2.96;64.70;100426.13;10515546;28;20048;-68
2023/12/07 09:43:34;;;;;;;7.38;3.53;;;;;;;2.80;64.12;100424.75;10516736;28;20044;-67
2023/12/07 09:48:42;;;;;;;8.15;3.95;;;;;;;2.53;64.13;100428.72;10516676;28;20044;-68
2023/12/07 09:53:49;;;;;;;8.07;4.13;;;;;;;2.48;64.52;100425.38;10517023;28;20059;-67
2023/12/07 09:58:51;;;;;;;7.03;3.15;;;;;;;2.46;64.79;100414.22;10516704;28;20059;-67
2023/12/07 10:04:18;;;;;;;9.90;4.22;;;;;;;2.62;64.37;100414.78;10516463;28;20036;-68
2023/12/07 10:09:21;;;;;;;7.28;3.40;;;;;;;2.49;64.79;100403.00;10496697;28;20052;-67
2023/12/07 10:14:33;;;;;;;6.75;3.25;;;;;;;2.48;64.70;100396.16;10498738;28;20113;-68
2023/12/07 10:19:35;;;;;;;7.07;3.65;;;;;;;2.65;64.69;100397.50;10481578;28;20374;-68
2023/12/07 10:24:38;;;;;;;8.38;3.50;;;;;;;2.69;64.55;100386.22;10497595;28;20125;-67
2023/12/07 10:29:40;;;;;;;8.27;4.20;;;;;;;2.76;64.33;100392.97;10519649;28;20124;-68
2023/12/07 10:34:42;;;;;;;7.18;3.58;;;;;;;2.86;64.76;100394.50;10523873;28;20141;-67
2023/12/07 10:39:44;;;;;;;8.27;3.63;;;;;;;2.81;64.36;100393.72;10522770;28;20125;-68
2023/12/07 10:44:50;;;;;;;6.40;3.17;;;;;;;2.74;64.41;100402.50;10523056;28;20135;-68
2023/12/07 10:49:58;;;;;;;12.85;3.97;;;;;;;2.74;64.93;100392.16;10498897;28;20156;-67
2023/12/07 10:55:04;;;;;;;10.38;5.05;;;;;;;2.74;64.84;100384.41;10521985;28;20135;-68
2023/12/07 11:00:08;;;;;;;6.93;3.67;;;;;;;2.79;64.68;100368.78;10523080;28;20063;-67
2023/12/07 11:05:11;;;;;;;6.90;3.00;;;;;;;2.63;64.81;100360.53;10520707;28;20038;-68
2023/12/07 11:10:22;;;;;;;7.80;3.10;;;;;;;2.73;64.59;100354.28;10521808;28;20048;-67
2023/12/07 11:15:24;;;;;;;5.68;2.90;;;;;;;2.70;64.49;100338.84;10522298;28;20040;-67
2023/12/07 11:20:42;;;;;;;9.35;3.50;;;;;;;2.49;64.69;100328.13;10503311;28;20519;-67
2023/12/07 11:25:45;;;;;;;8.05;3.20;;;;;;;2.57;64.46;100315.91;10521009;28;20064;-68
2023/12/07 11:30:49;;;;;;;8.00;3.65;;;;;;;2.38;64.89;100314.63;10521355;28;20650;-67
2023/12/07 11:36:00;;;;;;;10.25;3.95;;;;;;;2.44;65.21;100293.84;10520888;28;20533;-67
2023/12/07 11:41:04;;;;;;;7.88;3.72;;;;;;;2.59;64.78;100285.75;10519007;28;20122;-67
2023/12/07 11:46:07;;;;;;;7.20;3.50;;;;;;;2.43;65.21;100285.22;10520469;28;20552;-67
2023/12/07 11:51:11;;;;;;;9.68;3.97;;;;;;;2.43;64.94;100267.16;10520226;28;20855;-67
2023/12/07 11:56:18;;;;;;;7.63;4.07;;;;;;;2.43;65.14;100258.56;10519820;28;20373;-67
2023/12/07 12:01:20;;;;;;;7.22;4.22;;;;;;;2.51;64.97;100249.78;10520046;28;20130;-67
2023/12/07 12:06:26;;;;;;;8.18;3.53;;;;;;;2.57;64.90;100249.66;10519017;28;20059;-67
2023/12/07 12:11:28;;;;;;;7.10;3.85;;;;;;;2.53;64.68;100236.81;10519274;28;20039;-66
2023/12/07 12:16:30;;;;;;;7.55;3.40;;;;;;;2.61;65.25;100225.44;10518917;28;20074;-67
2023/12/07 12:21:39;;;;;;;6.75;3.33;;;;;;;2.59;65.25;100221.19;10534364;27;20559;-67
2023/12/07 12:26:42;;;;;;;7.22;3.90;;;;;;;2.48;64.79;100223.19;10518127;28;20051;-68
2023/12/07 12:31:44;;;;;;;7.60;3.67;;;;;;;2.65;65.31;100221.91;10518859;28;20044;-67
2023/12/07 12:36:46;;;;;;;8.93;3.95;;;;;;;2.72;64.51;100215.75;10518052;28;20143;-67
2023/12/07 12:41:54;;;;;;;10.00;3.75;;;;;;;2.75;65.03;100218.22;10500550;28;20050;-67
2023/12/07 12:46:57;;;;;;;7.20;3.90;;;;;;;2.68;64.82;100214.09;10516594;28;20203;-68
2023/12/07 12:51:59;;;;;;;7.70;4.05;;;;;;;2.81;65.01;100202.59;10483257;28;20047;-67
2023/12/07 12:57:01;;;;;;;7.20;3.70;;;;;;;2.89;64.71;100203.25;10517009;28;20048;-67
2023/12/07 13:02:08;;;;;;;7.60;3.55;;;;;;;2.72;64.87;100200.25;10516506;28;20064;-68
2023/12/07 13:07:12;;;;;;;10.60;4.95;;;;;;;2.64;65.05;100186.63;10517507;28;20135;-68
2023/12/07 13:12:14;;;;;;;7.60;3.63;;;;;;;2.68;65.25;100188.25;10517172;28;20044;-68
2023/12/07 13:17:16;;;;;;;9.90;4.07;;;;;;;2.74;65.21;100189.88;10499267;28;20136;-68
2023/12/07 13:22:18;;;;;;;8.93;3.95;;;;;;;2.77;65.52;100189.78;10498532;28;20063;-68
2023/12/07 13:27:20;;;;;;;9.75;5.25;;;;;;;2.97;65.40;100182.38;10498409;28;20314;-68
2023/12/07 13:32:23;;;;;;;11.45;5.38;;;;;;;3.05;65.25;100173.56;10514660;28;20051;-69
2023/12/07 13:37:25;;;;;;;10.88;4.55;;;;;;;2.69;65.48;100165.88;10499376;28;20466;-68
2023/12/07 13:42:28;;;;;;;10.35;4.10;;;;;;;2.84;65.49;100168.97;10514308;28;20052;-68
2023/12/07 13:47:32;;;;;;;14.00;5.63;;;;;;;2.99;65.35;100157.38;10496395;28;20051;-68
2023/12/07 13:52:35;;;;;;;9.43;4.25;;;;;;;2.97;65.35;100153.97;10497025;28;20396;-67
2023/12/07 13:57:37;;;;;;;6.50;3.85;;;;;;;2.94;65.00;100154.94;10497253;28;20051;-67
2023/12/07 14:02:39;;;;;;;9.00;3.80;;;;;;;2.85;65.06;100142.22;10472815;28;20423;-68
2023/12/07 14:07:41;;;;;;;8.20;3.67;;;;;;;2.80;65.16;100138.94;10481953;28;20219;-67
2023/12/07 14:12:43;;;;;;;6.32;3.45;;;;;;;2.67;65.30;100127.19;10481943;28;20036;-67
2023/12/07 14:17:45;;;;;;;6.95;3.50;;;;;;;2.62;65.31;100126.44;10481343;28;20055;-69
2023/12/07 14:22:57;;;;;;;7.57;2.97;;;;;;;2.47;65.47;100120.81;10480351;28;20049;-69
2023/12/07 14:28:00;;;;;;;7.68;3.40;;;;;;;2.34;65.31;100122.00;10481038;28;20547;-69
2023/12/07 14:33:02;;;;;;;8.52;4.07;;;;;;;2.18;65.28;100108.59;10479952;28;20347;-68
2023/12/07 14:38:04;;;;;;;6.57;4.15;;;;;;;1.99;65.24;100110.72;10480685;28;20044;-68
2023/12/07 14:43:06;;;;;;;6.82;3.40;;;;;;;1.75;65.54;100110.41;10478504;28;20149;-67
2023/12/07 14:48:08;;;;;;;6.95;2.97;;;;;;;1.72;65.38;100095.88;10470130;28;20044;-68
2023/12/07 14:53:11;;;;;;;9.73;3.33;;;;;;;1.68;65.38;100091.66;10490046;28;20327;-68
2023/12/07 14:58:13;;;;;;;7.43;3.17;;;;;;;1.60;65.44;100087.53;10489651;28;20033;-68
2023/12/07 15:03:17;;;;;;;5.88;2.75;;;;;;;1.58;65.30;100076.41;10516869;28;20066;-68
2023/12/07 15:08:19;;;;;;;10.15;2.92;;;;;;;1.53;65.29;100078.22;10514018;28;20040;-67
2023/12/07 15:13:21;;;;;;;6.72;2.97;;;;;;;1.50;65.40;100060.28;10498330;28;20044;-68
2023/12/07 15:18:23;;;;;;;6.03;2.88;;;;;;;1.50;65.56;100055.13;10511720;28;20062;-66
2023/12/07 15:23:25;;;;;;;4.95;2.83;;;;;;;1.49;65.39;100048.25;10515228;28;20032;-66
2023/12/07 15:28:28;;;;;;;8.95;4.78;;;;;;;1.37;65.94;100051.94;10511771;28;20040;-65
2023/12/07 15:33:34;;;;;;;6.72;3.15;;;;;;;1.44;65.99;100047.50;10515611;28;20058;-65
2023/12/07 15:38:37;;;;;;;6.32;2.90;;;;;;;1.50;65.68;100043.09;10516173;28;20071;-65
2023/12/07 15:43:42;;;;;;;7.45;3.63;;;;;;;1.49;65.78;100030.22;10513650;28;20444;-66
2023/12/07 15:48:44;;;;;;;10.27;3.55;;;;;;;1.51;65.96;100031.88;10513930;28;20032;-66
2023/12/07 15:53:46;;;;;;;9.15;3.63;;;;;;;1.15;66.98;100025.78;10516719;28;20048;-67
2023/12/07 15:58:48;;;;;;;7.45;4.00;;;;;;;1.27;66.66;100022.09;10514860;28;20515;-66
2023/12/07 16:03:51;;;;;;;7.85;3.47;;;;;;;1.28;66.69;100019.47;10515295;28;20509;-66
2023/12/07 16:08:53;;;;;;;8.60;3.55;;;;;;;1.31;66.73;100019.44;10498654;28;20124;-66
2023/12/07 16:13:55;;;;;;;11.32;4.47;;;;;;;1.38;66.60;100014.16;10514648;28;20411;-67
2023/12/07 16:18:57;;;;;;;9.45;4.32;;;;;;;1.45;66.76;100019.13;10513108;28;20028;-65
2023/12/07 16:23:59;;;;;;;7.18;2.83;;;;;;;1.32;66.53;100007.38;10512634;28;20641;-62
2023/12/07 16:29:01;;;;;;;11.13;3.85;;;;;;;1.34;66.48;100009.03;10496108;28;20036;-63
2023/12/07 16:34:03;;;;;;;7.20;3.47;;;;;;;1.45;66.34;100003.66;10510249;28;20097;-63
2023/12/07 16:39:06;;;;;;;6.75;3.42;;;;;;;1.56;66.32;100001.72;10513182;28;20040;-63
2023/12/07 16:44:10;;;;;;;7.45;3.85;;;;;;;1.59;66.33;99996.47;10494767;28;20773;-63
2023/12/07 16:49:13;;;;;;;6.82;3.20;;;;;;;1.58;66.02;99988.78;10510252;28;20511;-63
2023/12/07 16:54:15;;;;;;;5.82;3.08;;;;;;;1.37;65.77;99977.22;10490173;28;20055;-63
2023/12/07 16:59:17;;;;;;;7.05;3.92;;;;;;;1.19;66.37;99969.88;10513067;28;20500;-64
2023/12/07 17:04:19;;;;;;;7.55;4.03;;;;;;;1.24;66.58;99963.75;10511889;28;20037;-63
2023/12/07 17:09:22;;;;;;;7.25;3.80;;;;;;;1.27;66.73;99968.84;10512638;28;20059;-62
2023/12/07 17:14:25;;;;;;;9.18;4.93;;;;;;;1.20;66.74;99954.38;10494276;28;20397;-63
2023/12/07 17:19:28;;;;;;;8.23;4.45;;;;;;;1.29;66.63;99945.63;10475624;28;20698;-64
2023/12/07 17:24:38;;;;;;;8.27;4.25;;;;;;;1.30;66.35;99937.84;10492565;28;20127;-64
2023/12/07 17:29:40;;;;;;;8.95;4.75;;;;;;;1.27;66.37;99942.22;10511387;28;20062;-64
2023/12/07 17:34:44;;;;;;;9.60;3.90;;;;;;;1.29;66.61;99935.31;10511601;28;20097;-63
2023/12/07 17:39:46;;;;;;;10.88;4.10;;;;;;;1.24;66.65;99929.41;10510269;28;20290;-63
2023/12/07 17:44:49;;;;;;;10.30;4.53;;;;;;;1.16;66.58;99919.28;10510914;28;20031;-64
2023/12/07 17:49:51;;;;;;;11.52;4.35;;;;;;;1.12;66.56;99919.38;10506516;28;20047;-64
2023/12/07 17:54:53;;;;;;;10.35;4.63;;;;;;;0.98;67.00;99917.09;10509672;28;20043;-64
2023/12/07 17:59:55;;;;;;;10.38;5.13;;;;;;;0.95;67.07;99917.16;10510315;28;20411;-64
2023/12/07 18:04:57;;;;;;;11.30;4.78;;;;;;;0.90;67.48;99919.00;10507164;28;20056;-63
2023/12/07 18:09:59;;;;;;;9.98;4.75;;;;;;;0.88;67.16;99912.19;10509244;28;20071;-64
2023/12/07 18:15:07;;;;;;;11.23;5.65;;;;;;;0.84;67.34;99910.53;10508690;28;20054;-64
2023/12/07 18:20:10;;;;;;;13.80;5.45;;;;;;;0.68;67.77;99898.88;10509341;28;20452;-63
2023/12/07 18:25:12;;;;;;;12.98;6.40;;;;;;;0.60;67.82;99900.75;10508895;28;20043;-63
2023/12/07 18:30:14;;;;;;;12.52;5.30;;;;;;;0.49;67.92;99898.38;10504801;28;20522;-64
2023/12/07 18:35:16;;;;;;;10.38;5.05;;;;;;;0.44;68.19;99890.75;10500446;28;20181;-63
2023/12/07 18:40:19;;;;;;;10.93;5.57;;;;;;;0.41;68.20;99895.13;10491205;28;20044;-64
2023/12/07 18:45:21;;;;;;;11.68;5.20;;;;;;;0.43;68.04;99883.06;10508104;28;20050;-63
2023/12/07 18:50:24;;;;;;;10.55;5.07;;;;;;;0.32;68.21;99867.84;10510729;28;20802;-63
2023/12/07 18:55:26;;;;;;;13.00;5.13;;;;;;;0.25;68.49;99881.72;10516499;28;20559;-63
2023/12/07 19:00:38;;;;;;;11.10;5.60;;;;;;;0.19;68.72;99879.25;10518343;28;20072;-63
2023/12/07 19:05:41;;;;;;;12.63;5.65;;;;;;;0.15;68.74;99871.63;10501679;28;20040;-64
2023/12/07 19:10:44;;;;;;;12.35;5.43;;;;;;;0.16;68.80;99863.03;10515839;28;20048;-64
2023/12/07 19:15:46;;;;;;;12.90;6.13;;;;;;;0.13;68.71;99863.09;10515087;28;20059;-63
2023/12/07 19:20:48;;;;;;;10.80;4.72;;;;;;;0.12;68.78;99863.94;10514219;28;20310;-63
2023/12/07 19:25:50;;;;;;;11.85;5.55;;;;;;;0.14;68.48;99865.63;10513169;28;20120;-63
2023/12/07 19:30:52;;;;;;;10.68;4.68;;;;;;;0.18;68.54;99853.56;10515972;28;20155;-63
2023/12/07 19:35:54;;;;;;;10.50;4.57;;;;;;;0.18;68.32;99856.97;10512905;28;20519;-65
2023/12/07 19:40:56;;;;;;;10.73;5.15;;;;;;;0.17;68.38;99849.28;10516280;28;20487;-65
2023/12/07 19:45:59;;;;;;;10.27;5.28;;;;;;;0.17;68.33;99839.00;10514882;28;20127;-65
2023/12/07 19:51:01;;;;;;;10.30;5.32;;;;;;;0.14;68.45;99821.06;10511407;28;20051;-65
2023/12/07 19:56:03;;;;;;;9.88;5.03;;;;;;;0.18;68.46;99805.53;10513107;28;20167;-65
2023/12/07 20:01:06;;;;;;;9.55;4.60;;;;;;;0.21;68.36;99784.06;10512778;28;20472;-64
2023/12/07 20:06:08;;;;;;;11.90;5.10;;;;;;;0.21;68.54;99790.06;10495059;28;20132;-65
2023/12/07 20:11:18;;;;;;;13.32;5.03;;;;;;;0.31;68.38;99770.13;10492489;28;20044;-65
2023/12/07 20:16:21;;;;;;;9.60;3.92;;;;;;;0.36;68.11;99765.75;10512923;28;20047;-65
2023/12/07 20:21:23;;;;;;;7.95;4.20;;;;;;;0.27;67.86;99759.06;10513227;28;20032;-64
2023/12/07 20:26:25;;;;;;;13.65;4.75;;;;;;;0.22;68.52;99742.06;10515601;28;20079;-65
2023/12/07 20:31:27;;;;;;;12.65;4.82;;;;;;;0.27;68.29;99725.66;10483709;28;20044;-64
2023/12/07 20:36:29;;;;;;;9.52;4.05;;;;;;;0.24;68.13;99720.53;10505224;28;20051;-64
2023/12/07 20:41:31;;;;;;;10.25;4.90;;;;;;;0.28;68.28;99719.59;10496742;28;20743;-65
2023/12/07 20:46:33;;;;;;;8.68;3.95;;;;;;;0.32;68.18;99710.94;10495625;28;20039;-64
2023/12/07 20:51:35;;;;;;;8.00;3.80;;;;;;;0.51;67.83;99708.81;10511931;28;20050;-65
2023/12/07 20:56:41;;;;;;;8.70;4.22;;;;;;;0.55;67.68;99689.84;10512811;28;20044;-64
2023/12/07 21:01:45;;;;;;;8.20;3.65;;;;;;;0.50;67.68;99689.94;10515040;28;20056;-65
2023/12/07 21:06:47;;;;;;;9.13;4.10;;;;;;;0.51;67.61;99698.53;10497933;28;20121;-65
2023/12/07 21:11:49;;;;;;;9.45;4.22;;;;;;;0.49;67.47;99690.84;10513331;28;20222;-64
2023/12/07 21:16:52;;;;;;;9.88;4.60;;;;;;;0.50;67.61;99668.53;10491651;28;20044;-65
2023/12/07 21:21:54;;;;;;;16.10;5.05;;;;;;;0.61;67.54;99665.72;10509986;28;20044;-64
2023/12/07 21:26:56;;;;;;;8.15;4.13;;;;;;;0.78;67.53;99648.13;10489178;28;20052;-64
2023/12/07 21:31:58;;;;;;;10.00;4.45;;;;;;;0.87;67.00;99635.03;10492476;28;20466;-64
2023/12/07 21:37:00;;;;;;;9.13;3.90;;;;;;;0.88;67.00;99621.25;10506868;28;20044;-64
2023/12/07 21:42:03;;;;;;;9.25;3.83;;;;;;;0.92;66.90;99617.72;10511527;28;20051;-64
2023/12/07 21:47:05;;;;;;;9.55;4.65;;;;;;;0.97;66.82;99609.00;10514300;28;20052;-63
2023/12/07 21:52:07;;;;;;;9.57;3.88;;;;;;;0.96;66.68;99617.63;10513314;28;20130;-63
2023/12/07 21:57:09;;;;;;;6.57;3.63;;;;;;;1.00;66.58;99601.22;10496532;28;20044;-63
2023/12/07 22:02:11;;;;;;;9.63;4.18;;;;;;;0.98;65.90;99587.53;10496259;28;20058;-63
2023/12/07 22:07:14;;;;;;;8.95;3.80;;;;;;;0.98;66.14;99574.66;10513852;28;20055;-63
2023/12/07 22:12:16;;;;;;;9.23;4.20;;;;;;;0.90;66.55;99574.00;10513429;28;20054;-63
2023/12/07 22:17:17;;;;;;;11.05;4.60;;;;;;;0.93;66.41;99563.63;10514060;28;20066;-63
2023/12/07 22:22:20;;;;;;;9.73;4.43;;;;;;;0.79;66.38;99544.31;10513755;28;20524;-63
2023/12/07 22:27:22;;;;;;;9.75;4.30;;;;;;;0.88;66.21;99532.03;10497508;28;20093;-63
2023/12/07 22:32:24;;;;;;;12.63;5.38;;;;;;;0.87;65.80;99520.03;10521598;28;20070;-64
2023/12/07 22:37:26;;;;;;;9.30;4.43;;;;;;;0.86;66.25;99520.06;10521717;28;20427;-63
2023/12/07 22:42:29;;;;;;;11.07;5.63;;;;;;;0.92;66.02;99525.06;10521557;28;20052;-63
2023/12/07 22:47:32;;;;;;;10.98;4.53;;;;;;;0.90;65.87;99509.66;10502539;28;20722;-64
2023/12/07 22:52:34;;;;;;;9.40;4.57;;;;;;;0.97;65.80;99479.44;10520996;28;20055;-63
2023/12/07 22:57:36;;;;;;;8.70;3.92;;;;;;;0.94;65.56;99480.38;10520757;28;20142;-65
2023/12/07 23:02:38;;;;;;;9.35;4.28;;;;;;;0.93;65.56;99468.38;10519561;28;20396;-64
2023/12/07 23:07:40;;;;;;;8.13;4.15;;;;;;;0.97;65.67;99440.81;10520913;28;20040;-63
2023/12/07 23:12:42;;;;;;;12.60;4.32;;;;;;;0.97;65.72;99445.97;10498590;28;20480;-64
2023/12/07 23:17:45;;;;;;;9.98;4.32;;;;;;;1.05;65.70;99426.00;10520163;28;20514;-63
2023/12/07 23:22:47;;;;;;;9.02;4.40;;;;;;;1.11;65.29;99412.94;10535347;27;20454;-63
2023/12/07 23:27:49;;;;;;;11.93;4.05;;;;;;;1.16;65.32;99447.09;10519758;28;20043;-64
2023/12/07 23:32:51;;;;;;;8.52;3.55;;;;;;;1.18;65.16;99430.72;10519294;28;20054;-63